Time;durP1;ratioP1;P1;durP2;ratioP2;P2;SDS_P1;SDS_P2;PMS_P1;PMS_P2;Temp;Humidity;BMP_temperature;BMP_pressure;BME280_temperature;BME280_humidity;BME280_pressure;Samples;Min_cycle;Max_cycle;Signal;HPM_P1;HPM_P2
2024/02/17 00:02:15;;;;;;;;;;;;;;;9.26;72.56;96912.52;108097;1283;22998;-85
2024/02/17 00:04:41;;;;;;;;;;;;;;;9.26;72.57;96913.04;108184;1287;22581;-85
2024/02/17 00:07:07;;;;;;;;;;;;;;;9.25;72.57;96908.09;108186;1283;24942;-85
2024/02/17 00:09:37;;;;;;;;;;;;;;;9.25;72.22;96907.45;108112;1288;22531;-85
2024/02/17 00:12:03;;;;;;;;;;;;;;;9.28;71.95;96909.05;108173;1287;25406;-85
2024/02/17 00:14:30;;;;;;;;;;;;;;;9.31;72.10;96910.33;108155;1287;22560;-85
2024/02/17 00:16:56;;;;;;;;;;;;;;;9.31;71.63;96905.95;108041;1288;22511;-85
2024/02/17 00:19:23;;;;;;;;;;;;;;;9.34;71.67;96908.44;108058;1283;22507;-85
2024/02/17 00:21:49;;;;;;;;;;;;;;;9.36;71.94;96913.42;108171;1287;24287;-85
2024/02/17 00:24:15;;;;;;;;;;;;;;;9.37;71.24;96907.92;108062;1288;22544;-84
2024/02/17 00:26:42;;;;;;;;;;;;;;;9.39;70.85;96899.10;108052;1287;22511;-84
2024/02/17 00:29:08;;;;;;;;;;;;;;;9.43;70.99;96906.21;108047;1288;22515;-85
2024/02/17 00:31:35;;;;;;;;;;;;;;;9.47;70.66;96907.93;108052;1287;22662;-85
2024/02/17 00:34:01;;;;;;;;;;;;;;;9.49;70.53;96910.30;108051;1283;22546;-85
2024/02/17 00:36:27;;;;;;;;;;;;;;;9.49;70.87;96911.83;108055;1287;22502;-86
2024/02/17 00:38:54;;;;;;;;;;;;;;;9.48;70.71;96912.47;108072;1284;22526;-85
2024/02/17 00:41:21;;;;;;;;;;;;;;;9.48;70.43;96908.52;108088;1287;23910;-86
2024/02/17 00:43:47;;;;;;;;;;;;;;;9.46;71.03;96913.00;108157;1287;22511;-84
2024/02/17 00:46:15;;;;;;;;;;;;;;;9.43;71.14;96909.05;108182;1287;22521;-85
2024/02/17 00:48:43;;;;;;;;;;;;;;;9.42;70.75;96912.06;108119;1281;22523;-84
2024/02/17 00:51:12;;;;;;;;;;;;;;;9.41;70.71;96913.88;108056;1287;24179;-85
2024/02/17 00:53:42;;;;;;;;;;;;;;;9.44;70.35;96913.27;108169;1281;22495;-84
2024/02/17 00:56:08;;;;;;;;;;;;;;;9.43;70.73;96912.95;108036;1281;22545;-85
2024/02/17 00:58:35;;;;;;;;;;;;;;;9.42;70.63;96923.92;108090;1288;22508;-84
2024/02/17 01:01:01;;;;;;;;;;;;;;;9.43;70.41;96921.30;108064;1281;23645;-84
2024/02/17 01:03:27;;;;;;;;;;;;;;;9.44;70.78;96923.63;108116;1289;22508;-84
2024/02/17 01:05:54;;;;;;;;;;;;;;;9.43;71.01;96919.42;108084;1284;23425;-84
2024/02/17 01:08:21;;;;;;;;;;;;;;;9.39;70.85;96919.42;108051;1286;24779;-84
2024/02/17 01:10:47;;;;;;;;;;;;;;;9.38;71.13;96919.11;108077;1287;23326;-84
2024/02/17 01:13:14;;;;;;;;;;;;;;;9.35;71.12;96918.88;108087;1283;25756;-85
2024/02/17 01:15:41;;;;;;;;;;;;;;;9.32;71.14;96917.94;108197;1287;23266;-85
2024/02/17 01:18:07;;;;;;;;;;;;;;;9.31;71.24;96923.70;108146;1287;22517;-85
2024/02/17 01:20:34;;;;;;;;;;;;;;;9.31;70.93;96917.48;108072;1287;22523;-85
2024/02/17 01:23:00;;;;;;;;;;;;;;;9.30;71.05;96918.46;108088;1288;22539;-85
2024/02/17 01:25:27;;;;;;;;;;;;;;;9.29;70.92;96917.77;108055;1287;22528;-85
2024/02/17 01:27:53;;;;;;;;;;;;;;;9.27;71.01;96921.79;108049;1289;22510;-85
2024/02/17 01:30:20;;;;;;;;;;;;;;;9.26;70.75;96920.27;108183;1287;22570;-85
2024/02/17 01:32:46;;;;;;;;;;;;;;;9.26;71.02;96920.80;108051;1283;22532;-85
2024/02/17 01:35:13;;;;;;;;;;;;;;;9.26;70.84;96924.65;108071;1287;25233;-84
2024/02/17 01:37:40;;;;;;;;;;;;;;;9.24;70.56;96923.10;108029;1286;22577;-84
2024/02/17 01:40:06;;;;;;;;;;;;;;;9.23;70.56;96921.87;108100;1288;22517;-86
2024/02/17 01:42:33;;;;;;;;;;;;;;;9.21;70.91;96923.98;108078;1289;22541;-85
2024/02/17 01:45:03;;;;;;;;;;;;;;;9.18;70.76;96920.96;108174;1287;22496;-85
2024/02/17 01:47:30;;;;;;;;;;;;;;;9.17;70.52;96922.00;108088;1283;24285;-85
2024/02/17 01:49:56;;;;;;;;;;;;;;;9.17;70.90;96920.60;108147;1273;24252;-85
2024/02/17 01:52:23;;;;;;;;;;;;;;;9.12;70.87;96921.30;108065;1281;22564;-85
2024/02/17 01:54:49;;;;;;;;;;;;;;;9.10;70.94;96919.17;108110;1288;22511;-85
2024/02/17 01:57:16;;;;;;;;;;;;;;;9.11;70.39;96922.27;108062;1286;22531;-86
2024/02/17 01:59:42;;;;;;;;;;;;;;;9.14;70.45;96917.27;108080;1283;22562;-86
2024/02/17 02:02:09;;;;;;;;;;;;;;;9.15;71.25;96920.24;108138;1287;22553;-85
2024/02/17 02:04:35;;;;;;;;;;;;;;;9.16;70.58;96920.87;108119;1280;22515;-86
2024/02/17 02:07:02;;;;;;;;;;;;;;;9.18;70.58;96923.56;108057;1283;22514;-86
2024/02/17 02:09:28;;;;;;;;;;;;;;;9.21;70.37;96922.94;108063;1288;25221;-85
2024/02/17 02:11:56;;;;;;;;;;;;;;;9.23;70.50;96926.51;108047;1284;22515;-85
2024/02/17 02:14:23;;;;;;;;;;;;;;;9.22;70.66;96925.59;108172;1287;25279;-85
2024/02/17 02:16:50;;;;;;;;;;;;;;;9.22;70.86;96927.80;108120;1287;22870;-86
2024/02/17 02:19:16;;;;;;;;;;;;;;;9.20;70.68;96929.38;108056;1283;26643;-86
2024/02/17 02:21:43;;;;;;;;;;;;;;;9.19;70.44;96929.16;108046;1283;24186;-85
2024/02/17 02:24:09;;;;;;;;;;;;;;;9.19;70.11;96924.36;108036;1288;22542;-85
2024/02/17 02:26:36;;;;;;;;;;;;;;;9.18;70.18;96931.14;108087;1287;22508;-85
2024/02/17 02:29:02;;;;;;;;;;;;;;;9.17;70.40;96923.65;108159;1280;22547;-85
2024/02/17 02:31:32;;;;;;;;;;;;;;;9.15;70.33;96924.27;108058;1284;24312;-85
2024/02/17 02:33:58;;;;;;;;;;;;;;;9.11;70.55;96927.75;108080;1289;23772;-85
2024/02/17 02:36:25;;;;;;;;;;;;;;;9.08;70.47;96929.65;108063;1283;22521;-86
2024/02/17 02:38:52;;;;;;;;;;;;;;;9.04;70.56;96927.41;108077;1275;24166;-86
2024/02/17 02:41:18;;;;;;;;;;;;;;;9.01;70.81;96925.02;108072;1283;23773;-85
2024/02/17 02:43:44;;;;;;;;;;;;;;;8.98;70.86;96932.95;108086;1278;25196;-86
2024/02/17 02:46:12;;;;;;;;;;;;;;;8.93;70.93;96932.71;108121;1287;22572;-85
2024/02/17 02:48:39;;;;;;;;;;;;;;;8.88;70.82;96935.52;108075;1289;22590;-86
2024/02/17 02:51:06;;;;;;;;;;;;;;;8.83;71.10;96933.42;108120;1288;22511;-86
2024/02/17 02:53:32;;;;;;;;;;;;;;;8.79;71.24;96930.38;108170;1288;22532;-85
2024/02/17 02:55:59;;;;;;;;;;;;;;;8.75;71.11;96936.65;108051;1284;22651;-85
2024/02/17 02:58:25;;;;;;;;;;;;;;;8.71;71.48;96938.45;108077;1287;22511;-84
2024/02/17 03:00:52;;;;;;;;;;;;;;;8.66;71.48;96942.95;108119;1277;22505;-85
2024/02/17 03:03:18;;;;;;;;;;;;;;;8.60;72.08;96944.91;108167;1285;25278;-85
2024/02/17 03:05:44;;;;;;;;;;;;;;;8.54;71.81;96945.34;108121;1287;23224;-85
2024/02/17 03:08:11;;;;;;;;;;;;;;;8.53;71.88;96939.96;108162;1287;22517;-84
2024/02/17 03:10:37;;;;;;;;;;;;;;;8.54;71.76;96941.59;108156;1281;22507;-85
2024/02/17 03:13:04;;;;;;;;;;;;;;;8.53;72.08;96942.52;108011;1277;22546;-85
2024/02/17 03:15:30;;;;;;;;;;;;;;;8.51;72.06;96943.60;108164;1281;23246;-85
2024/02/17 03:17:56;;;;;;;;;;;;;;;8.50;72.15;96943.70;108049;1283;23904;-86
2024/02/17 03:20:23;;;;;;;;;;;;;;;8.49;71.86;96943.77;108069;1283;22532;-85
2024/02/17 03:22:49;;;;;;;;;;;;;;;8.49;71.86;96944.80;108148;1287;23282;-85
2024/02/17 03:25:16;;;;;;;;;;;;;;;8.49;72.04;96950.19;108210;1281;22549;-85
2024/02/17 03:27:43;;;;;;;;;;;;;;;8.50;71.69;96948.23;108063;1288;27364;-85
2024/02/17 03:30:09;;;;;;;;;;;;;;;8.51;71.77;96949.15;108026;1288;22533;-85
2024/02/17 03:32:36;;;;;;;;;;;;;;;8.49;71.93;96945.69;108000;1288;25224;-85
2024/02/17 03:35:06;;;;;;;;;;;;;;;8.49;71.87;96950.58;108056;1288;25046;-85
2024/02/17 03:37:32;;;;;;;;;;;;;;;8.47;72.22;96948.14;108043;1288;25268;-85
2024/02/17 03:39:59;;;;;;;;;;;;;;;8.43;72.31;96948.87;108083;1288;22515;-85
2024/02/17 03:42:25;;;;;;;;;;;;;;;8.42;72.10;96953.59;108033;1281;22583;-85
2024/02/17 03:44:53;;;;;;;;;;;;;;;8.42;72.07;96954.95;108160;1287;22507;-85
2024/02/17 03:47:21;;;;;;;;;;;;;;;8.44;71.92;96957.04;108055;1288;22532;-85
2024/02/17 03:49:48;;;;;;;;;;;;;;;8.46;71.98;96958.48;108169;1280;23882;-85
2024/02/17 03:52:14;;;;;;;;;;;;;;;8.46;72.17;96961.38;108077;1286;22552;-85
2024/02/17 03:54:42;;;;;;;;;;;;;;;8.45;72.02;96958.76;108071;1287;22507;-85
2024/02/17 03:57:08;;;;;;;;;;;;;;;8.45;72.10;96972.55;108171;1287;22521;-85
2024/02/17 03:59:35;;;;;;;;;;;;;;;8.45;71.80;96972.84;108066;1288;22538;-85
2024/02/17 04:02:01;;;;;;;;;;;;;;;8.48;71.83;96978.51;108080;1281;22556;-85
2024/02/17 04:04:27;;;;;;;;;;;;;;;8.48;71.86;96972.61;108078;1283;22511;-85
2024/02/17 04:06:54;;;;;;;;;;;;;;;8.47;72.07;96982.55;108047;1289;24241;-85
2024/02/17 04:09:20;;;;;;;;;;;;;;;8.48;71.87;96982.10;108083;1284;22545;-85
2024/02/17 04:11:46;;;;;;;;;;;;;;;8.50;71.87;96981.36;108063;1283;22536;-85
2024/02/17 04:14:13;;;;;;;;;;;;;;;8.52;71.76;96980.30;108081;1287;22557;-85
2024/02/17 04:16:39;;;;;;;;;;;;;;;8.53;71.73;96980.91;108055;1288;22512;-85
2024/02/17 04:19:06;;;;;;;;;;;;;;;8.52;71.64;96981.70;108065;1284;22514;-85
2024/02/17 04:21:32;;;;;;;;;;;;;;;8.53;71.63;96981.86;108141;1287;23365;-85
2024/02/17 04:23:59;;;;;;;;;;;;;;;8.54;71.47;96972.96;108182;1280;25528;-85
2024/02/17 04:26:25;;;;;;;;;;;;;;;8.56;71.62;96977.30;108070;1287;22526;-85
2024/02/17 04:28:51;;;;;;;;;;;;;;;8.57;71.53;96977.38;108019;1287;23683;-85
2024/02/17 04:31:18;;;;;;;;;;;;;;;8.56;71.55;96978.34;108017;1287;22577;-84
2024/02/17 04:33:44;;;;;;;;;;;;;;;8.56;71.36;96978.86;108062;1287;22600;-85
2024/02/17 04:36:11;;;;;;;;;;;;;;;8.55;71.41;96976.14;108072;1283;23769;-86
2024/02/17 04:38:38;;;;;;;;;;;;;;;8.55;71.17;96976.70;108159;1280;22622;-87
2024/02/17 04:41:05;;;;;;;;;;;;;;;8.56;71.26;96972.61;108155;1281;22556;-87
2024/02/17 04:43:31;;;;;;;;;;;;;;;8.57;71.23;96973.55;107949;1288;24208;-86
2024/02/17 04:45:59;;;;;;;;;;;;;;;8.59;71.16;96972.87;108053;1284;22514;-86
2024/02/17 04:48:27;;;;;;;;;;;;;;;8.61;70.92;96969.01;108083;1288;22543;-87
2024/02/17 04:50:53;;;;;;;;;;;;;;;8.66;71.07;96970.35;108035;1283;23758;-87
2024/02/17 04:53:19;;;;;;;;;;;;;;;8.69;71.22;96972.19;108031;1281;22523;-86
2024/02/17 04:55:46;;;;;;;;;;;;;;;8.70;70.73;96973.40;108161;1276;24262;-87
2024/02/17 04:58:17;;;;;;;;;;;;;;;8.76;70.52;96973.05;108154;1280;23089;-87
2024/02/17 05:00:46;;;;;;;;;;;;;;;8.81;70.78;96973.32;108077;1281;27346;-85
2024/02/17 05:03:14;;;;;;;;;;;;;;;8.83;70.91;96972.84;108011;1281;25409;-86
2024/02/17 05:05:44;;;;;;;;;;;;;;;8.86;70.97;96979.09;108057;1287;22510;-87
2024/02/17 05:08:10;;;;;;;;;;;;;;;8.88;70.86;96977.16;108056;1281;22511;-86
2024/02/17 05:10:37;;;;;;;;;;;;;;;8.89;70.59;96978.91;108169;1287;22507;-87
2024/02/17 05:13:03;;;;;;;;;;;;;;;8.93;70.75;96987.64;108128;1286;25416;-87
2024/02/17 05:15:30;;;;;;;;;;;;;;;8.97;70.61;96991.91;108060;1283;22507;-87
2024/02/17 05:17:56;;;;;;;;;;;;;;;8.99;70.80;96995.86;108031;1289;27374;-87
2024/02/17 05:20:23;;;;;;;;;;;;;;;9.01;70.61;96993.92;108067;1287;22532;-87
2024/02/17 05:22:49;;;;;;;;;;;;;;;9.03;70.56;96995.95;108050;1289;22543;-86
2024/02/17 05:25:16;;;;;;;;;;;;;;;9.07;70.89;96996.95;108100;1287;22521;-87
2024/02/17 05:27:43;;;;;;;;;;;;;;;9.12;70.67;96998.56;108032;1289;22507;-87
2024/02/17 05:30:10;;;;;;;;;;;;;;;9.17;70.66;97004.77;108107;1287;22550;-87
2024/02/17 05:32:37;;;;;;;;;;;;;;;9.21;71.01;97004.13;108086;1288;22510;-87
2024/02/17 05:35:03;;;;;;;;;;;;;;;9.24;70.80;97009.52;108001;1286;25393;-87
2024/02/17 05:37:30;;;;;;;;;;;;;;;9.25;71.00;97016.84;108002;1283;22542;-87
2024/02/17 05:39:56;;;;;;;;;;;;;;;9.26;70.65;97016.38;108100;1283;22529;-87
2024/02/17 05:42:23;;;;;;;;;;;;;;;9.27;70.78;97021.30;108003;1289;22733;-87
2024/02/17 05:44:50;;;;;;;;;;;;;;;9.26;70.96;97026.56;108079;1287;25281;-87
2024/02/17 05:47:18;;;;;;;;;;;;;;;9.27;70.31;97027.90;108080;1289;22572;-87
2024/02/17 05:49:45;;;;;;;;;;;;;;;9.27;70.68;97033.06;108032;1287;22528;-87
2024/02/17 05:52:11;;;;;;;;;;;;;;;9.25;70.73;97035.70;108169;1287;22516;-87
2024/02/17 05:54:38;;;;;;;;;;;;;;;9.26;71.08;97039.42;108012;1287;23239;-86
2024/02/17 05:57:04;;;;;;;;;;;;;;;9.25;71.11;97042.09;108071;1288;24561;-86
2024/02/17 05:59:31;;;;;;;;;;;;;;;9.23;71.28;97042.96;108098;1287;22537;-86
2024/02/17 06:01:57;;;;;;;;;;;;;;;9.22;71.24;97045.88;108064;1280;26020;-86
2024/02/17 06:04:23;;;;;;;;;;;;;;;9.20;71.94;97049.21;108193;1287;22514;-86
2024/02/17 06:06:50;;;;;;;;;;;;;;;9.17;73.04;97052.31;108027;1289;22503;-86
2024/02/17 06:09:16;;;;;;;;;;;;;;;9.08;72.25;97051.98;108185;1280;22520;-86
2024/02/17 06:11:43;;;;;;;;;;;;;;;9.01;71.88;97055.40;108067;1289;23915;-86
2024/02/17 06:14:09;;;;;;;;;;;;;;;9.01;71.62;97059.64;108092;1287;22511;-86
2024/02/17 06:16:35;;;;;;;;;;;;;;;9.02;71.75;97066.44;108052;1289;22517;-87
2024/02/17 06:21:47;;;;;;;;;;;;;;;9.04;71.93;97067.94;108105;1287;22539;-87
2024/02/17 06:24:14;;;;;;;;;;;;;;;9.03;72.89;97075.65;108126;1287;22744;-87
2024/02/17 06:26:40;;;;;;;;;;;;;;;9.02;73.35;97070.73;108138;1277;25079;-87
2024/02/17 06:29:07;;;;;;;;;;;;;;;8.99;74.05;97071.55;108025;1281;23753;-87
2024/02/17 06:31:36;;;;;;;;;;;;;;;8.97;74.36;97075.73;108075;1283;22566;-87
2024/02/17 06:34:03;;;;;;;;;;;;;;;8.96;74.84;97074.30;108020;1286;25416;-87
2024/02/17 06:36:29;;;;;;;;;;;;;;;8.94;74.80;97074.63;108043;1287;24227;-87
2024/02/17 06:38:56;;;;;;;;;;;;;;;8.91;75.42;97076.10;108000;1286;23805;-87
2024/02/17 06:41:22;;;;;;;;;;;;;;;8.90;75.04;97078.52;108104;1287;22654;-87
2024/02/17 06:43:50;;;;;;;;;;;;;;;8.91;74.38;97079.66;108008;1284;22540;-85
2024/02/17 06:46:17;;;;;;;;;;;;;;;8.94;74.35;97082.79;108075;1283;23962;-87
2024/02/17 06:48:49;;;;;;;;;;;;;;;8.95;75.01;97082.16;108026;1284;22558;-86
2024/02/17 06:51:16;;;;;;;;;;;;;;;8.93;75.44;97079.44;108025;1281;25292;-86
2024/02/17 06:53:44;;;;;;;;;;;;;;;8.88;75.08;97092.48;108055;1282;22507;-86
2024/02/17 06:56:10;;;;;;;;;;;;;;;8.87;74.94;97091.44;108026;1286;23257;-86
2024/02/17 06:58:37;;;;;;;;;;;;;;;8.84;76.30;97089.16;108007;1288;22524;-86
2024/02/17 07:01:03;;;;;;;;;;;;;;;8.84;75.67;97095.34;108139;1284;22514;-86
2024/02/17 07:03:30;;;;;;;;;;;;;;;8.87;76.01;97094.23;108018;1283;22504;-86
2024/02/17 07:05:56;;;;;;;;;;;;;;;8.88;75.85;97097.66;108160;1287;23107;-86
2024/02/17 07:08:23;;;;;;;;;;;;;;;8.91;75.61;97096.77;108020;1288;25683;-87
2024/02/17 07:10:49;;;;;;;;;;;;;;;8.91;75.05;97101.89;108021;1287;22507;-87
2024/02/17 07:13:16;;;;;;;;;;;;;;;8.93;75.38;97107.80;108113;1287;22542;-87
2024/02/17 07:15:45;;;;;;;;;;;;;;;8.94;75.70;97106.45;108115;1287;22520;-87
2024/02/17 07:18:12;;;;;;;;;;;;;;;8.96;76.11;97112.49;108146;1287;22537;-87
2024/02/17 07:20:38;;;;;;;;;;;;;;;8.97;75.65;97117.23;108105;1286;22603;-87
2024/02/17 07:23:05;;;;;;;;;;;;;;;8.98;75.50;97117.60;108058;1288;22511;-86
2024/02/17 07:25:32;;;;;;;;;;;;;;;9.00;75.17;97128.33;108045;1281;22563;-86
2024/02/17 07:27:58;;;;;;;;;;;;;;;9.01;75.31;97131.45;108031;1279;22555;-86
2024/02/17 07:30:25;;;;;;;;;;;;;;;9.03;75.24;97137.54;108150;1281;23320;-87
2024/02/17 07:32:52;;;;;;;;;;;;;;;9.05;75.91;97146.81;108172;1283;24341;-87
2024/02/17 07:35:18;;;;;;;;;;;;;;;9.10;76.56;97151.56;108020;1281;22555;-87
2024/02/17 07:37:45;;;;;;;;;;;;;;;9.10;75.22;97153.55;108053;1281;24150;-87
2024/02/17 07:40:11;;;;;;;;;;;;;;;9.06;74.65;97157.32;108055;1281;23872;-86
2024/02/17 07:42:38;;;;;;;;;;;;;;;9.04;74.64;97156.92;108102;1283;22649;-86
2024/02/17 07:45:05;;;;;;;;;;;;;;;9.05;74.99;97168.13;108082;1287;22506;-86
2024/02/17 07:47:32;;;;;;;;;;;;;;;9.06;75.75;97173.35;108089;1283;23102;-86
2024/02/17 07:49:59;;;;;;;;;;;;;;;9.09;76.29;97176.02;108110;1288;22555;-86
2024/02/17 07:52:26;;;;;;;;;;;;;;;9.13;77.45;97187.88;107980;1288;22543;-85
2024/02/17 07:54:53;;;;;;;;;;;;;;;9.16;78.10;97191.48;107975;1287;22555;-86
2024/02/17 07:57:19;;;;;;;;;;;;;;;9.15;77.61;97194.60;108159;1274;25442;-86
2024/02/17 07:59:45;;;;;;;;;;;;;;;9.13;78.27;97198.38;107975;1286;22519;-86
2024/02/17 08:02:12;;;;;;;;;;;;;;;9.12;79.38;97199.18;107988;1287;22533;-86
2024/02/17 08:04:40;;;;;;;;;;;;;;;9.10;79.50;97203.54;107991;1288;22547;-87
2024/02/17 08:07:06;;;;;;;;;;;;;;;9.10;79.46;97210.93;108021;1287;23367;-87
2024/02/17 08:09:33;;;;;;;;;;;;;;;9.08;78.13;97214.10;107976;1286;26428;-87
2024/02/17 08:11:59;;;;;;;;;;;;;;;9.07;78.83;97220.09;108010;1284;24055;-87
2024/02/17 08:14:26;;;;;;;;;;;;;;;9.06;79.10;97225.51;108126;1284;22911;-87
2024/02/17 08:16:52;;;;;;;;;;;;;;;9.06;79.64;97233.95;108059;1286;24224;-87
2024/02/17 08:19:18;;;;;;;;;;;;;;;9.01;79.49;97237.23;108043;1284;23769;-87
2024/02/17 08:21:45;;;;;;;;;;;;;;;8.97;79.38;97244.86;108050;1281;22515;-87
2024/02/17 08:24:11;;;;;;;;;;;;;;;8.95;79.70;97246.30;108158;1287;22540;-87
2024/02/17 08:26:38;;;;;;;;;;;;;;;8.92;78.75;97248.36;108231;1283;22748;-87
2024/02/17 08:29:04;;;;;;;;;;;;;;;8.88;78.41;97252.88;108026;1286;22545;-87
2024/02/17 08:31:31;;;;;;;;;;;;;;;8.86;78.61;97254.87;108026;1286;22505;-86
2024/02/17 08:33:57;;;;;;;;;;;;;;;8.83;78.54;97258.60;108139;1268;22690;-87
2024/02/17 08:36:24;;;;;;;;;;;;;;;8.77;78.75;97263.98;108181;1287;26435;-86
2024/02/17 08:38:50;;;;;;;;;;;;;;;8.72;79.22;97264.81;108017;1288;25279;-88
2024/02/17 08:41:19;;;;;;;;;;;;;;;8.69;79.44;97270.27;108189;1287;22578;-85
2024/02/17 08:43:46;;;;;;;;;;;;;;;8.63;79.09;97278.11;108064;1288;22535;-86
2024/02/17 08:46:13;;;;;;;;;;;;;;;8.56;79.83;97284.71;108074;1287;22494;-86
2024/02/17 08:48:40;;;;;;;;;;;;;;;8.49;80.57;97285.56;108050;1289;22524;-87
2024/02/17 08:51:06;;;;;;;;;;;;;;;8.41;80.84;97296.38;108067;1287;23458;-87
2024/02/17 08:53:33;;;;;;;;;;;;;;;8.34;81.89;97295.91;108123;1284;24175;-87
2024/02/17 08:55:59;;;;;;;;;;;;;;;8.27;82.36;97288.38;107994;1284;22785;-86
2024/02/17 08:58:25;;;;;;;;;;;;;;;8.22;82.04;97279.38;108037;1284;22523;-86
2024/02/17 09:00:52;;;;;;;;;;;;;;;8.15;83.47;97278.55;108083;1287;22521;-86
2024/02/17 09:03:19;;;;;;;;;;;;;;;8.07;83.59;97280.16;108029;1284;22500;-86
2024/02/17 09:05:46;;;;;;;;;;;;;;;8.01;83.75;97286.05;108033;1283;22532;-86
2024/02/17 09:08:12;;;;;;;;;;;;;;;7.98;84.22;97288.39;108051;1288;22506;-86
2024/02/17 09:10:38;;;;;;;;;;;;;;;7.97;84.47;97289.86;108039;1287;24319;-86
2024/02/17 09:13:05;;;;;;;;;;;;;;;7.98;84.98;97286.52;108032;1288;22559;-87
2024/02/17 09:15:31;;;;;;;;;;;;;;;7.98;85.67;97285.84;107981;1287;22537;-86
2024/02/17 09:17:59;;;;;;;;;;;;;;;7.98;86.36;97283.25;108007;1288;22515;-87
2024/02/17 09:20:28;;;;;;;;;;;;;;;7.98;86.82;97286.41;107955;1287;164007;-86
2024/02/17 09:22:54;;;;;;;;;;;;;;;7.98;88.26;97285.53;108001;1288;22771;-86
2024/02/17 09:25:21;;;;;;;;;;;;;;;7.97;88.59;97285.05;108051;1288;26771;-86
2024/02/17 09:27:47;;;;;;;;;;;;;;;7.98;89.76;97286.67;108038;1288;24774;-86
2024/02/17 09:30:14;;;;;;;;;;;;;;;8.01;91.40;97286.39;108014;1283;22571;-87
2024/02/17 09:32:40;;;;;;;;;;;;;;;8.06;90.58;97289.70;108018;1283;22771;-87
2024/02/17 09:35:06;;;;;;;;;;;;;;;8.12;91.38;97292.91;108006;1283;25267;-87
2024/02/17 09:37:33;;;;;;;;;;;;;;;8.17;92.35;97296.29;108056;1284;22504;-87
2024/02/17 09:39:59;;;;;;;;;;;;;;;8.20;93.91;97295.70;108039;1288;22536;-87
2024/02/17 09:42:26;;;;;;;;;;;;;;;8.20;93.90;97298.12;108012;1284;22605;-87
2024/02/17 09:44:52;;;;;;;;;;;;;;;8.20;94.05;97302.78;108042;1287;24833;-87
2024/02/17 09:47:19;;;;;;;;;;;;;;;8.20;94.28;97302.95;107978;1284;23304;-86
2024/02/17 09:49:45;;;;;;;;;;;;;;;8.21;94.88;97307.29;108021;1287;22533;-86
2024/02/17 09:52:12;;;;;;;;;;;;;;;8.23;96.00;97310.22;107983;1288;25289;-87
2024/02/17 09:54:38;;;;;;;;;;;;;;;8.23;97.41;97306.43;108055;1288;23254;-86
2024/02/17 09:57:05;;;;;;;;;;;;;;;8.22;97.59;97311.56;108060;1289;23876;-86
2024/02/17 09:59:31;;;;;;;;;;;;;;;8.21;97.77;97308.81;108049;1284;22536;-86
2024/02/17 10:01:58;;;;;;;;;;;;;;;8.24;98.76;97306.73;108002;1289;23032;-85
2024/02/17 10:04:24;;;;;;;;;;;;;;;8.25;99.67;97304.45;108032;1287;25399;-86
2024/02/17 10:06:57;;;;;;;;;;;;;;;8.27;100.00;97298.93;108105;1289;25191;-86
2024/02/17 10:09:23;;;;;;;;;;;;;;;8.30;100.00;97301.93;108009;1287;22509;-86
2024/02/17 10:11:50;;;;;;;;;;;;;;;8.33;100.00;97300.46;108164;1287;22504;-86
2024/02/17 10:14:17;;;;;;;;;;;;;;;8.34;100.00;97301.05;108146;1287;22536;-86
2024/02/17 10:16:43;;;;;;;;;;;;;;;8.36;100.00;97296.42;108055;1283;22527;-86
2024/02/17 10:19:10;;;;;;;;;;;;;;;8.38;100.00;97290.52;108086;1283;22539;-87
2024/02/17 10:21:39;;;;;;;;;;;;;;;8.41;100.00;97290.41;108044;1283;22842;-87
2024/02/17 10:24:06;;;;;;;;;;;;;;;8.43;100.00;97285.35;108146;1281;24182;-87
2024/02/17 10:26:32;;;;;;;;;;;;;;;8.48;100.00;97285.15;108052;1287;22552;-87
2024/02/17 10:28:59;;;;;;;;;;;;;;;8.52;100.00;97287.98;108095;1287;22514;-87
2024/02/17 10:31:26;;;;;;;;;;;;;;;8.57;100.00;97289.77;108070;1282;22539;-87
2024/02/17 10:33:53;;;;;;;;;;;;;;;8.61;100.00;97292.84;108045;1287;22538;-86
2024/02/17 10:36:19;;;;;;;;;;;;;;;8.64;100.00;97298.40;108012;1287;22530;-86
2024/02/17 10:38:46;;;;;;;;;;;;;;;8.68;100.00;97299.58;108008;1284;22540;-87
2024/02/17 10:41:12;;;;;;;;;;;;;;;8.70;100.00;97302.09;108107;1281;22577;-87
2024/02/17 10:43:43;;;;;;;;;;;;;;;8.75;100.00;97306.33;108014;1288;22546;-87
2024/02/17 10:46:18;;;;;;;;;;;;;;;8.77;100.00;97309.04;107997;1287;22821;-87
2024/02/17 10:48:47;;;;;;;;;;;;;;;8.80;100.00;97311.74;109527;1284;23165;-85
2024/02/17 10:51:13;;;;;;;;;;;;;;;8.85;100.00;97317.80;109332;1287;22721;-85
2024/02/17 10:53:42;;;;;;;;;;;;;;;8.90;100.00;97319.53;108026;1287;22551;-85
2024/02/17 10:56:13;;;;;;;;;;;;;;;8.96;100.00;97323.94;108013;1287;22547;-86
2024/02/17 10:58:40;;;;;;;;;;;;;;;8.95;100.00;97322.31;108103;1285;22515;-86
2024/02/17 11:01:06;;;;;;;;;;;;;;;8.94;100.00;97319.84;107998;1289;23390;-86
2024/02/17 11:03:33;;;;;;;;;;;;;;;8.96;100.00;97318.92;107981;1289;22959;-86
2024/02/17 11:06:03;;;;;;;;;;;;;;;8.97;100.00;97312.27;107992;1283;25414;-86
2024/02/17 11:08:33;;;;;;;;;;;;;;;9.00;100.00;97310.11;109463;1286;22690;-87
2024/02/17 11:11:18;;;;;;;;;;;;;;;9.03;100.00;97306.85;109551;1287;22961;-87
2024/02/17 11:13:44;;;;;;;;;;;;;;;9.03;100.00;97308.23;109520;1281;22413;-87
2024/02/17 11:16:11;;;;;;;;;;;;;;;9.07;100.00;97310.83;109545;1281;22411;-87
2024/02/17 11:18:37;;;;;;;;;;;;;;;9.13;100.00;97315.81;109660;1281;23143;-87
2024/02/17 11:21:04;;;;;;;;;;;;;;;9.19;100.00;97313.13;109505;1281;22462;-85
2024/02/17 11:23:31;;;;;;;;;;;;;;;9.23;100.00;97310.93;109561;1287;22415;-85
2024/02/17 11:25:57;;;;;;;;;;;;;;;9.25;100.00;97301.73;109545;1279;22409;-85
2024/02/17 11:28:23;;;;;;;;;;;;;;;9.31;100.00;97298.23;109302;1283;23057;-84
2024/02/17 11:30:50;;;;;;;;;;;;;;;9.40;100.00;97301.19;109549;1283;22460;-85
2024/02/17 11:33:21;;;;;;;;;;;;;;;9.44;100.00;97306.45;108714;1284;22523;-84
2024/02/17 11:35:48;;;;;;;;;;;;;;;9.48;100.00;97311.26;108076;1289;23787;-86
2024/02/17 11:38:15;;;;;;;;;;;;;;;9.49;100.00;97310.94;108172;1287;23859;-86
2024/02/17 11:40:42;;;;;;;;;;;;;;;9.49;100.00;97312.66;108060;1289;22552;-86
2024/02/17 11:43:08;;;;;;;;;;;;;;;9.47;100.00;97310.67;108180;1278;22508;-86
2024/02/17 11:45:36;;;;;;;;;;;;;;;9.44;100.00;97310.10;107987;1284;23806;-86
2024/02/17 11:48:03;;;;;;;;;;;;;;;9.46;100.00;97311.80;108106;1288;24924;-87
2024/02/17 11:50:29;;;;;;;;;;;;;;;9.47;100.00;97312.55;108133;1285;25421;-86
2024/02/17 11:52:56;;;;;;;;;;;;;;;9.45;100.00;97314.84;108103;1287;24688;-87
2024/02/17 11:55:22;;;;;;;;;;;;;;;9.43;100.00;97315.01;107949;1287;23187;-86
2024/02/17 11:57:55;;;;;;;;;;;;;;;9.41;100.00;97315.77;108161;1285;22538;-87
2024/02/17 12:00:22;;;;;;;;;;;;;;;9.41;100.00;97322.27;108032;1289;22510;-87
2024/02/17 12:02:48;;;;;;;;;;;;;;;9.44;100.00;97326.07;108101;1287;22525;-87
2024/02/17 12:05:15;;;;;;;;;;;;;;;9.43;100.00;97330.45;108134;1287;24042;-86
2024/02/17 12:07:42;;;;;;;;;;;;;;;9.38;100.00;97335.56;108067;1287;22536;-88
2024/02/17 12:10:08;;;;;;;;;;;;;;;9.38;100.00;97335.61;108051;1288;22519;-87
2024/02/17 12:12:39;;;;;;;;;;;;;;;9.37;100.00;97331.02;107992;1288;22562;-88
2024/02/17 12:15:08;;;;;;;;;;;;;;;9.38;100.00;97332.02;108021;1281;22511;-87
2024/02/17 12:17:38;;;;;;;;;;;;;;;9.39;100.00;97328.42;108009;1282;23864;-87
2024/02/17 12:20:05;;;;;;;;;;;;;;;9.38;100.00;97331.65;108021;1287;25657;-87
2024/02/17 12:22:31;;;;;;;;;;;;;;;9.37;100.00;97331.75;108122;1285;22540;-86
2024/02/17 12:24:58;;;;;;;;;;;;;;;9.38;100.00;97351.02;108153;1282;24302;-87
2024/02/17 12:27:24;;;;;;;;;;;;;;;9.33;100.00;97362.42;108005;1283;22510;-87
2024/02/17 12:29:50;;;;;;;;;;;;;;;9.10;100.00;97371.07;108045;1283;22511;-87
2024/02/17 12:32:20;;;;;;;;;;;;;;;8.85;100.00;97377.63;107995;1281;22581;-86
2024/02/17 12:34:46;;;;;;;;;;;;;;;8.59;100.00;97396.49;108064;1287;22510;-87
2024/02/17 12:37:15;;;;;;;;;;;;;;;8.37;100.00;97389.14;108048;1289;26488;-87
2024/02/17 12:39:43;;;;;;;;;;;;;;;8.23;100.00;97395.13;109089;1281;22692;-85
2024/02/17 12:42:09;;;;;;;;;;;;;;;8.16;100.00;97400.64;108049;1288;22536;-87
2024/02/17 12:44:36;;;;;;;;;;;;;;;8.10;100.00;97397.86;108050;1287;22665;-87
2024/02/17 12:47:14;;;;;;;;;;;;;;;8.04;100.00;97400.34;108034;1289;23023;-87